createdAt,value
2023-03-06T00:00:43.363Z,55.20
2023-03-06T00:03:10.025Z,55.30
2023-03-06T00:05:36.699Z,55.20
2023-03-06T00:08:03.840Z,55.20
2023-03-06T00:10:32.624Z,55.20
2023-03-06T00:13:01.291Z,55.10
2023-03-06T00:15:28.804Z,55.10
2023-03-06T00:17:56.161Z,55.10
2023-03-06T00:20:24.526Z,55.20
2023-03-06T00:22:51.659Z,55.20
2023-03-06T00:25:20.635Z,55.30
2023-03-06T00:27:48.768Z,55.20
2023-03-06T00:30:18.464Z,55.20
2023-03-06T00:32:45.174Z,55.10
2023-03-06T00:35:12.299Z,55.10
2023-03-06T00:37:39.716Z,55.10
2023-03-06T00:40:08.612Z,55.10
2023-03-06T00:42:35.324Z,55.10
2023-03-06T00:45:03.780Z,55.80
2023-03-06T00:47:30.430Z,55.10
2023-03-06T00:49:57.077Z,55.10
2023-03-06T00:52:24.321Z,55.10
2023-03-06T00:54:51.069Z,55.10
2023-03-06T00:57:17.714Z,55.20
2023-03-06T00:59:44.397Z,55.00
2023-03-06T01:02:12.905Z,55.20
2023-03-06T01:04:39.781Z,55.20
2023-03-06T01:07:06.637Z,55.20
2023-03-06T01:09:33.377Z,55.30
2023-03-06T01:12:00.054Z,55.90
2023-03-06T01:14:26.820Z,55.20
2023-03-06T01:16:53.525Z,55.20
2023-03-06T01:19:21.488Z,55.40
2023-03-06T01:21:48.235Z,55.30
2023-03-06T01:24:14.893Z,55.40
2023-03-06T01:26:41.516Z,55.30
2023-03-06T01:29:08.191Z,55.30
2023-03-06T01:31:35.259Z,55.30
2023-03-06T01:34:02.251Z,55.30
2023-03-06T01:36:30.237Z,55.40
2023-03-06T01:38:57.197Z,55.20
2023-03-06T01:41:23.841Z,55.20
2023-03-06T01:43:50.650Z,55.10
2023-03-06T01:46:29.507Z,55.10
2023-03-06T01:48:59.049Z,55.10
2023-03-06T01:51:30.227Z,55.00
2023-03-06T01:54:01.766Z,55.10
2023-03-06T01:56:29.022Z,55.00
2023-03-06T01:58:56.585Z,55.00
2023-03-06T02:01:23.529Z,54.90
2023-03-06T02:03:51.055Z,54.90
2023-03-06T02:06:18.156Z,54.90
2023-03-06T02:08:45.150Z,54.80
2023-03-06T02:11:15.447Z,54.90
2023-03-06T02:13:43.589Z,54.80
2023-03-06T02:16:11.709Z,54.80
2023-03-06T02:18:39.325Z,54.80
2023-03-06T02:21:08.279Z,54.80
2023-03-06T02:23:45.660Z,54.70
2023-03-06T02:26:14.876Z,54.70
2023-03-06T02:28:41.767Z,54.80
2023-03-06T02:31:18.464Z,54.70
2023-03-06T02:33:45.162Z,54.70
2023-03-06T02:36:15.921Z,54.70
2023-03-06T02:38:47.550Z,54.70
2023-03-06T02:41:16.272Z,54.60
2023-03-06T02:43:45.722Z,54.60
2023-03-06T02:46:12.488Z,54.60
2023-03-06T02:48:39.217Z,54.60
2023-03-06T02:51:06.139Z,54.60
2023-03-06T02:53:32.837Z,54.60
2023-03-06T02:55:59.574Z,54.60
2023-03-06T02:58:27.736Z,54.60
2023-03-06T03:00:54.462Z,54.70
2023-03-06T03:03:21.149Z,54.50
2023-03-06T03:05:47.814Z,54.50
2023-03-06T03:08:14.521Z,55.10
2023-03-06T03:10:41.242Z,54.60
2023-03-06T03:13:07.986Z,54.50
2023-03-06T03:15:36.074Z,55.10
2023-03-06T03:18:02.786Z,54.50
2023-03-06T03:20:29.535Z,54.50
2023-03-06T03:22:56.500Z,54.30
2023-03-06T03:25:25.950Z,54.60
2023-03-06T03:27:52.748Z,54.60
2023-03-06T03:30:19.758Z,54.50
2023-03-06T03:32:47.796Z,54.60
2023-03-06T03:35:14.499Z,54.60
2023-03-06T03:37:41.225Z,54.60
2023-03-06T03:40:09.146Z,54.50
2023-03-06T03:42:35.840Z,54.70
2023-03-06T03:45:02.623Z,54.70
2023-03-06T03:47:29.323Z,54.80
2023-03-06T03:49:57.361Z,54.80
2023-03-06T03:52:24.037Z,54.60
2023-03-06T03:54:50.704Z,54.70
2023-03-06T03:57:17.578Z,54.70
2023-03-06T03:59:44.308Z,54.70
2023-03-06T04:02:11.145Z,54.70
2023-03-06T04:04:38.104Z,54.90
2023-03-06T04:07:06.499Z,54.80
2023-03-06T04:09:33.248Z,54.90
2023-03-06T04:12:00.000Z,54.80
2023-03-06T04:14:26.714Z,54.80
2023-03-06T04:16:53.398Z,54.90
2023-03-06T04:19:20.149Z,55.00
2023-03-06T04:21:46.828Z,54.80
2023-03-06T04:24:14.970Z,54.90
2023-03-06T04:26:41.792Z,54.90
2023-03-06T04:29:08.560Z,54.90
2023-03-06T04:31:35.336Z,54.90
2023-03-06T04:34:02.059Z,54.90
2023-03-06T04:36:30.807Z,55.00
2023-03-06T04:38:58.157Z,54.90
2023-03-06T04:41:26.362Z,54.90
2023-03-06T04:43:53.860Z,54.80
2023-03-06T04:46:20.511Z,54.90
2023-03-06T04:48:47.368Z,54.90
2023-03-06T04:51:14.940Z,55.00
2023-03-06T04:53:41.595Z,55.00
2023-03-06T04:56:08.627Z,55.10
2023-03-06T04:58:36.783Z,55.10
2023-03-06T05:01:04.319Z,55.10
2023-03-06T05:03:31.175Z,55.20
2023-03-06T05:05:58.730Z,55.30
2023-03-06T05:08:25.427Z,55.10
2023-03-06T05:10:54.995Z,55.20
2023-03-06T05:13:21.754Z,55.10
2023-03-06T05:15:49.802Z,55.00
2023-03-06T05:18:16.720Z,55.10
2023-03-06T05:20:43.620Z,55.00
2023-03-06T05:23:10.463Z,55.10
2023-03-06T05:25:38.383Z,55.00
2023-03-06T05:28:05.139Z,54.90
2023-03-06T05:30:31.858Z,55.00
2023-03-06T05:33:00.209Z,54.90
2023-03-06T05:35:26.954Z,54.90
2023-03-06T05:37:53.868Z,54.90
2023-03-06T05:40:21.045Z,54.90
2023-03-06T05:42:47.895Z,54.90
2023-03-06T05:45:14.624Z,54.90
2023-03-06T05:47:41.361Z,54.90
2023-03-06T05:50:10.999Z,54.90
2023-03-06T05:52:38.585Z,54.90
2023-03-06T05:55:06.227Z,54.90
2023-03-06T05:57:33.004Z,55.00
2023-03-06T05:59:59.690Z,55.00
2023-03-06T06:02:26.422Z,54.90
2023-03-06T06:04:53.308Z,55.00
2023-03-06T06:07:21.324Z,55.10
2023-03-06T06:09:47.991Z,55.10
2023-03-06T06:12:14.802Z,55.00
2023-03-06T06:14:41.519Z,55.00
2023-03-06T06:17:08.207Z,55.10
2023-03-06T06:19:35.256Z,55.10
2023-03-06T06:22:01.930Z,55.00
2023-03-06T06:24:31.194Z,55.20
2023-03-06T06:26:59.684Z,55.30
2023-03-06T06:29:28.411Z,55.20
2023-03-06T06:31:55.264Z,55.20
2023-03-06T06:34:22.895Z,55.30
2023-03-06T06:36:53.165Z,55.40
2023-03-06T06:39:21.294Z,55.50
2023-03-06T06:42:14.521Z,55.60
2023-03-06T06:44:36.218Z,55.80
2023-03-06T06:47:23.040Z,55.70
2023-03-06T06:49:50.824Z,55.80
2023-03-06T06:52:17.530Z,55.70
2023-03-06T06:54:44.278Z,55.90
2023-03-06T06:57:12.906Z,55.70
2023-03-06T06:59:39.611Z,55.80
2023-03-06T07:02:06.307Z,55.80
2023-03-06T07:04:33.021Z,55.80
2023-03-06T07:06:59.919Z,55.90
2023-03-06T07:09:26.602Z,55.70
2023-03-06T07:11:53.266Z,55.80
2023-03-06T07:14:21.276Z,56.00
2023-03-06T07:16:48.002Z,56.00
2023-03-06T07:19:14.660Z,56.00
2023-03-06T07:21:41.442Z,56.10
2023-03-06T07:24:08.669Z,55.80
2023-03-06T07:26:35.524Z,55.80
2023-03-06T07:29:02.971Z,55.70
2023-03-06T07:31:31.193Z,55.80
2023-03-06T07:33:57.952Z,56.00
2023-03-06T07:36:24.702Z,55.70
2023-03-06T07:38:51.363Z,55.70
2023-03-06T07:41:19.368Z,55.70
2023-03-06T07:43:47.191Z,55.50
2023-03-06T07:46:14.353Z,55.70
2023-03-06T07:48:42.824Z,55.80
2023-03-06T07:51:14.420Z,55.80
2023-03-06T07:53:41.087Z,55.60
2023-03-06T07:56:08.471Z,55.60
2023-03-06T07:58:35.943Z,55.40
2023-03-06T08:01:06.663Z,55.50
2023-03-06T08:03:33.755Z,55.80
2023-03-06T08:06:09.803Z,55.70
2023-03-06T08:08:37.741Z,55.70
2023-03-06T08:11:04.974Z,55.90
2023-03-06T08:13:31.819Z,56.00
2023-03-06T08:15:58.550Z,56.00
2023-03-06T08:18:25.328Z,56.10
2023-03-06T08:21:01.362Z,56.10
2023-03-06T08:23:29.546Z,56.10
2023-03-06T08:25:57.101Z,56.10
2023-03-06T08:28:23.871Z,56.20
2023-03-06T08:30:50.550Z,56.40
2023-03-06T08:33:17.223Z,56.50
2023-03-06T08:35:43.949Z,56.80
2023-03-06T08:38:10.679Z,56.40
2023-03-06T08:40:38.677Z,56.50
2023-03-06T08:43:05.418Z,56.70
2023-03-06T08:45:32.104Z,56.40
2023-03-06T08:47:58.917Z,56.20
2023-03-06T08:50:25.583Z,56.00
2023-03-06T08:52:52.303Z,55.80
2023-03-06T08:55:19.070Z,55.80
2023-03-06T08:57:47.214Z,55.80
2023-03-06T09:00:15.087Z,55.70
2023-03-06T09:02:41.784Z,55.60
2023-03-06T09:05:09.168Z,55.70
2023-03-06T09:07:35.942Z,56.20
2023-03-06T09:10:02.913Z,55.80
2023-03-06T09:12:32.658Z,55.80
2023-03-06T09:15:06.478Z,55.60
2023-03-06T09:17:33.192Z,55.60
2023-03-06T09:19:59.901Z,55.70
2023-03-06T09:22:26.660Z,55.80
2023-03-06T09:24:53.313Z,55.80
2023-03-06T09:27:20.038Z,55.80
2023-03-06T09:29:46.730Z,55.80
2023-03-06T09:32:14.880Z,55.80
2023-03-06T09:34:41.680Z,55.90
2023-03-06T09:37:08.322Z,55.90
2023-03-06T09:39:35.456Z,56.10
2023-03-06T09:42:02.330Z,56.00
2023-03-06T09:44:32.031Z,56.20
2023-03-06T09:47:10.883Z,56.20
2023-03-06T09:49:46.028Z,56.20
2023-03-06T09:52:30.028Z,56.10
2023-03-06T09:55:02.081Z,56.20
2023-03-06T09:57:32.919Z,56.10
2023-03-06T10:00:04.373Z,56.20
2023-03-06T10:02:38.256Z,56.30
2023-03-06T10:05:10.321Z,56.30
2023-03-06T10:07:45.459Z,56.60
2023-03-06T10:10:18.227Z,56.70
2023-03-06T10:12:50.006Z,56.70
2023-03-06T10:15:20.400Z,57.00
2023-03-06T10:17:47.195Z,56.80
2023-03-06T10:20:21.632Z,56.70
2023-03-06T10:23:15.997Z,57.50
2023-03-06T10:25:52.342Z,56.70
2023-03-06T10:28:24.538Z,56.90
2023-03-06T10:30:58.646Z,56.70
2023-03-06T10:33:37.957Z,56.80
2023-03-06T10:36:06.557Z,57.10
2023-03-06T10:38:35.162Z,57.20
2023-03-06T10:41:08.071Z,57.10
2023-03-06T10:43:36.607Z,57.10
2023-03-06T10:46:04.708Z,57.00
2023-03-06T10:48:33.033Z,57.10
2023-03-06T10:51:19.424Z,57.00
2023-03-06T10:53:51.537Z,57.10
2023-03-06T10:56:27.560Z,57.00
2023-03-06T10:59:10.966Z,57.10
2023-03-06T11:01:38.531Z,56.90
2023-03-06T11:04:17.143Z,57.00
2023-03-06T11:06:45.426Z,57.00
2023-03-06T11:09:20.637Z,57.00
2023-03-06T11:11:47.367Z,56.90
2023-03-06T11:14:16.636Z,56.90
2023-03-06T11:16:47.319Z,56.60
2023-03-06T11:19:19.743Z,56.60
2023-03-06T11:22:00.829Z,56.70
2023-03-06T11:24:35.258Z,56.60
2023-03-06T11:27:19.919Z,56.30
2023-03-06T11:29:48.501Z,56.30
2023-03-06T11:32:18.197Z,56.30
2023-03-06T11:34:50.420Z,56.10
2023-03-06T11:37:28.365Z,56.00
2023-03-06T11:40:02.743Z,55.90
2023-03-06T11:42:34.252Z,55.80
2023-03-06T11:45:16.434Z,55.80
2023-03-06T11:47:48.868Z,55.70
2023-03-06T11:50:21.386Z,55.70
2023-03-06T11:52:53.361Z,55.60
2023-03-06T11:55:28.246Z,55.60
2023-03-06T11:58:16.272Z,55.50
2023-03-06T12:00:50.842Z,55.40
2023-03-06T12:03:30.853Z,55.30
2023-03-06T12:06:03.757Z,55.20
2023-03-06T12:08:49.354Z,55.10
2023-03-06T12:11:22.828Z,55.00
2023-03-06T12:14:17.082Z,55.00
2023-03-06T12:17:11.120Z,54.90
2023-03-06T12:19:55.778Z,54.80
2023-03-06T12:22:36.326Z,54.80
2023-03-06T12:25:29.094Z,54.80
2023-03-06T12:28:04.539Z,54.80
2023-03-06T12:30:52.729Z,54.90
2023-03-06T12:33:28.719Z,55.00
2023-03-06T12:36:14.982Z,55.10
2023-03-06T12:39:04.864Z,55.20
2023-03-06T12:41:48.587Z,55.20
2023-03-06T12:44:54.538Z,55.40
2023-03-06T12:47:23.609Z,55.50
2023-03-06T12:49:54.595Z,55.70
2023-03-06T12:52:30.243Z,55.80
2023-03-06T12:55:00.005Z,55.70
2023-03-06T12:57:29.749Z,55.70
2023-03-06T12:59:56.418Z,55.70
2023-03-06T13:03:00.425Z,55.80
2023-03-06T13:05:38.397Z,55.60
2023-03-06T13:08:30.518Z,55.70
2023-03-06T13:11:17.831Z,55.70
2023-03-06T13:13:47.614Z,55.70
2023-03-06T13:16:22.911Z,55.80
2023-03-06T13:18:55.069Z,55.70
2023-03-06T13:21:45.233Z,55.60
2023-03-06T13:24:18.086Z,55.50
2023-03-06T13:26:56.890Z,55.60
2023-03-06T13:29:47.904Z,55.50
2023-03-06T13:32:17.305Z,55.40
2023-03-06T13:34:44.850Z,55.40
2023-03-06T13:37:47.958Z,55.40
2023-03-06T13:40:25.163Z,56.10
2023-03-06T13:43:18.553Z,55.40
2023-03-06T13:45:47.962Z,55.40
2023-03-06T13:48:43.014Z,55.30
2023-03-06T13:51:20.420Z,55.40
2023-03-06T13:54:18.617Z,55.40
2023-03-06T13:57:06.248Z,55.40
2023-03-06T13:59:57.023Z,55.50
2023-03-06T14:02:47.755Z,55.50
2023-03-06T14:05:16.550Z,55.40
2023-03-06T14:07:45.420Z,55.40
2023-03-06T14:10:21.730Z,55.50
2023-03-06T14:13:01.879Z,55.60
2023-03-06T14:15:36.570Z,55.80
2023-03-06T14:18:07.062Z,55.80
2023-03-06T14:20:41.125Z,56.20
2023-03-06T14:23:25.352Z,56.20
2023-03-06T14:25:58.195Z,56.40
2023-03-06T14:28:27.647Z,56.60
2023-03-06T14:30:56.411Z,56.40
2023-03-06T14:33:41.669Z,56.40
2023-03-06T14:36:14.387Z,56.20
2023-03-06T14:38:46.048Z,56.30
2023-03-06T14:41:14.140Z,56.10
2023-03-06T14:43:40.939Z,55.90
2023-03-06T14:46:07.707Z,55.60
2023-03-06T14:48:41.750Z,55.40
2023-03-06T14:51:15.592Z,55.10
2023-03-06T14:53:43.771Z,55.40
2023-03-06T14:56:16.146Z,55.60
2023-03-06T14:58:57.733Z,55.30
2023-03-06T15:01:35.383Z,54.80
2023-03-06T15:04:10.866Z,54.80
2023-03-06T15:06:41.795Z,55.10
2023-03-06T15:09:14.782Z,55.10
2023-03-06T15:11:58.948Z,54.90
2023-03-06T15:14:37.384Z,54.30
2023-03-06T15:17:24.476Z,54.10
2023-03-06T15:19:54.660Z,54.30
2023-03-06T15:22:30.538Z,54.40
2023-03-06T15:25:20.201Z,54.20
2023-03-06T15:27:52.815Z,54.20
2023-03-06T15:30:25.930Z,54.50
2023-03-06T15:33:07.790Z,54.40
2023-03-06T15:35:38.244Z,54.80
2023-03-06T15:38:23.389Z,55.00
2023-03-06T15:40:55.609Z,54.80
2023-03-06T15:43:22.281Z,55.00
2023-03-06T15:45:49.085Z,55.10
2023-03-06T15:48:17.892Z,54.90
2023-03-06T15:50:46.029Z,55.00
2023-03-06T15:53:12.898Z,54.90
2023-03-06T15:55:39.575Z,54.90
2023-03-06T15:58:06.364Z,54.90
2023-03-06T16:00:34.920Z,54.90
2023-03-06T16:03:02.390Z,55.00
2023-03-06T16:05:30.514Z,55.20
2023-03-06T16:07:58.551Z,55.20
2023-03-06T16:10:28.101Z,55.30
2023-03-06T16:12:56.814Z,55.40
2023-03-06T16:15:25.330Z,55.40
2023-03-06T16:17:52.002Z,55.20
2023-03-06T16:20:20.763Z,55.00
2023-03-06T16:22:48.704Z,54.90
2023-03-06T16:25:17.583Z,54.90
2023-03-06T16:27:49.528Z,55.00
2023-03-06T16:30:18.410Z,55.00
2023-03-06T16:32:45.692Z,54.90
2023-03-06T16:35:13.675Z,54.80
2023-03-06T16:37:40.949Z,54.80
2023-03-06T16:40:17.784Z,54.50
2023-03-06T16:42:44.605Z,54.30
2023-03-06T16:45:11.778Z,54.40
2023-03-06T16:47:38.664Z,54.30
2023-03-06T16:50:06.171Z,54.10
2023-03-06T16:52:32.932Z,54.00
2023-03-06T16:54:59.602Z,54.00
2023-03-06T16:57:27.618Z,53.90
2023-03-06T16:59:54.555Z,53.80
2023-03-06T17:02:21.224Z,53.70
2023-03-06T17:04:47.922Z,53.70
2023-03-06T17:07:14.622Z,53.60
2023-03-06T17:09:41.309Z,53.50
2023-03-06T17:12:08.854Z,53.50
2023-03-06T17:14:36.924Z,53.30
2023-03-06T17:17:03.725Z,53.30
2023-03-06T17:19:30.487Z,53.30
2023-03-06T17:21:57.472Z,53.20
2023-03-06T17:24:24.127Z,53.20
2023-03-06T17:26:50.864Z,53.20
2023-03-06T17:29:17.776Z,53.10
2023-03-06T17:31:46.859Z,53.10
2023-03-06T17:34:13.546Z,53.00
2023-03-06T17:36:40.232Z,53.00
2023-03-06T17:39:06.965Z,52.90
2023-03-06T17:41:33.697Z,52.90
2023-03-06T17:44:00.460Z,52.90
2023-03-06T17:46:27.525Z,52.90
2023-03-06T17:48:55.945Z,52.90
2023-03-06T17:51:22.633Z,52.90
2023-03-06T17:53:49.385Z,52.90
2023-03-06T17:56:16.126Z,52.90
2023-03-06T17:58:42.849Z,53.00
2023-03-06T18:01:10.784Z,52.90
2023-03-06T18:03:38.703Z,52.90
2023-03-06T18:06:07.280Z,52.90
2023-03-06T18:08:33.971Z,52.90
2023-03-06T18:11:01.069Z,52.90
2023-03-06T18:13:27.761Z,52.80
2023-03-06T18:15:54.555Z,52.90
2023-03-06T18:18:21.285Z,52.90
2023-03-06T18:20:48.072Z,52.80
2023-03-06T18:23:16.124Z,52.80
2023-03-06T18:25:43.198Z,52.80
2023-03-06T18:28:10.551Z,52.90
2023-03-06T18:30:38.041Z,52.80
2023-03-06T18:33:05.122Z,52.90
2023-03-06T18:35:32.817Z,52.90
2023-03-06T18:37:59.490Z,52.80
2023-03-06T18:40:27.667Z,52.90
2023-03-06T18:42:54.736Z,52.90
2023-03-06T18:45:21.442Z,52.80
2023-03-06T18:47:48.125Z,52.80
2023-03-06T18:50:14.853Z,52.90
2023-03-06T18:52:41.598Z,52.90
2023-03-06T18:55:09.311Z,52.80
2023-03-06T18:57:37.863Z,52.80
2023-03-06T19:00:05.823Z,52.90
2023-03-06T19:02:32.590Z,52.90
2023-03-06T19:04:59.261Z,52.80
2023-03-06T19:07:25.914Z,52.80
2023-03-06T19:09:52.628Z,52.90
2023-03-06T19:12:19.315Z,52.90
2023-03-06T19:14:47.536Z,52.90
2023-03-06T19:17:14.253Z,52.90
2023-03-06T19:19:40.906Z,52.90
2023-03-06T19:22:07.718Z,52.90
2023-03-06T19:24:34.581Z,52.90
2023-03-06T19:27:01.269Z,52.90
2023-03-06T19:29:28.018Z,52.90
2023-03-06T19:31:56.063Z,52.90
2023-03-06T19:34:22.774Z,52.90
2023-03-06T19:36:50.189Z,53.00
2023-03-06T19:39:16.883Z,53.00
2023-03-06T19:41:43.564Z,53.00
2023-03-06T19:44:10.409Z,53.00
2023-03-06T19:46:37.047Z,53.10
2023-03-06T19:49:05.104Z,53.00
2023-03-06T19:51:32.013Z,53.20
2023-03-06T19:53:58.664Z,53.20
2023-03-06T19:56:27.276Z,53.20
2023-03-06T19:58:54.392Z,53.20
2023-03-06T20:01:22.702Z,53.40
2023-03-06T20:03:49.533Z,53.30
2023-03-06T20:06:19.610Z,53.40
2023-03-06T20:08:47.609Z,53.30
2023-03-06T20:11:18.333Z,53.40
2023-03-06T20:13:47.581Z,53.50
2023-03-06T20:16:14.900Z,53.50
2023-03-06T20:18:41.655Z,53.50
2023-03-06T20:21:08.331Z,53.60
2023-03-06T20:23:36.381Z,53.50
2023-03-06T20:26:04.272Z,53.50
2023-03-06T20:28:31.073Z,53.50
2023-03-06T20:30:57.934Z,53.60
2023-03-06T20:33:24.864Z,53.60
2023-03-06T20:35:51.563Z,53.60
2023-03-06T20:38:18.292Z,53.60
2023-03-06T20:40:46.639Z,53.70
2023-03-06T20:43:13.329Z,53.60
2023-03-06T20:45:40.071Z,53.50
2023-03-06T20:48:06.933Z,53.60
2023-03-06T20:50:33.624Z,53.60
2023-03-06T20:53:00.300Z,53.70
2023-03-06T20:55:26.959Z,53.60
2023-03-06T20:57:54.993Z,53.60
2023-03-06T21:00:21.688Z,53.60
2023-03-06T21:02:48.347Z,53.60
2023-03-06T21:05:15.202Z,53.60
2023-03-06T21:07:41.901Z,53.60
2023-03-06T21:10:09.802Z,53.50
2023-03-06T21:12:36.450Z,53.50
2023-03-06T21:15:05.376Z,53.60
2023-03-06T21:17:32.038Z,53.60
2023-03-06T21:19:58.716Z,53.60
2023-03-06T21:22:25.630Z,53.50
2023-03-06T21:24:52.324Z,53.50
2023-03-06T21:27:19.014Z,53.50
2023-03-06T21:29:45.679Z,53.50
2023-03-06T21:32:13.698Z,53.50
2023-03-06T21:34:40.397Z,53.50
2023-03-06T21:37:07.148Z,53.50
2023-03-06T21:39:34.059Z,53.80
2023-03-06T21:42:00.698Z,53.60
2023-03-06T21:44:27.379Z,53.50
2023-03-06T21:46:54.025Z,53.50
2023-03-06T21:49:22.083Z,53.50
2023-03-06T21:51:48.738Z,53.60
2023-03-06T21:54:15.401Z,53.50
2023-03-06T21:56:42.020Z,53.50
2023-03-06T21:59:08.785Z,53.50
2023-03-06T22:01:35.970Z,53.50
2023-03-06T22:04:02.661Z,53.60
2023-03-06T22:06:31.211Z,53.50
2023-03-06T22:08:59.478Z,53.50
2023-03-06T22:11:27.205Z,53.50
2023-03-06T22:13:53.900Z,53.60
2023-03-06T22:16:20.822Z,53.60
2023-03-06T22:18:49.884Z,53.70
2023-03-06T22:21:17.859Z,53.80
2023-03-06T22:23:49.103Z,53.70
2023-03-06T22:26:15.760Z,53.80
2023-03-06T22:28:42.554Z,53.90
2023-03-06T22:31:11.215Z,53.90
2023-03-06T22:33:37.942Z,53.80
2023-03-06T22:36:07.084Z,53.80
2023-03-06T22:38:34.965Z,53.80
2023-03-06T22:41:03.690Z,53.80
2023-03-06T22:43:31.019Z,53.80
2023-03-06T22:46:01.084Z,53.90
2023-03-06T22:48:27.865Z,54.00
2023-03-06T22:50:54.489Z,53.90
2023-03-06T22:53:21.170Z,54.00
2023-03-06T22:55:47.809Z,54.00
2023-03-06T22:58:15.780Z,53.90
2023-03-06T23:00:42.412Z,53.90
2023-03-06T23:03:09.100Z,54.00
2023-03-06T23:05:40.475Z,54.00
2023-03-06T23:08:07.201Z,54.10
2023-03-06T23:10:36.937Z,54.00
2023-03-06T23:13:03.628Z,53.90
2023-03-06T23:15:31.674Z,54.00
2023-03-06T23:17:58.336Z,53.90
2023-03-06T23:20:24.999Z,54.00
2023-03-06T23:22:51.662Z,54.00
2023-03-06T23:25:18.296Z,54.00
2023-03-06T23:27:44.970Z,54.00
2023-03-06T23:30:12.732Z,53.90
2023-03-06T23:32:40.764Z,54.00
2023-03-06T23:35:08.058Z,54.00
2023-03-06T23:37:34.726Z,54.00
2023-03-06T23:40:01.400Z,54.00
2023-03-06T23:42:28.082Z,54.00
2023-03-06T23:44:54.783Z,54.20
2023-03-06T23:47:21.475Z,54.40
2023-03-06T23:49:49.450Z,54.40
2023-03-06T23:52:16.133Z,54.40
2023-03-06T23:54:42.798Z,54.40
2023-03-06T23:57:09.464Z,54.40
2023-03-06T23:59:36.253Z,54.60
